createdAt,value
2023-03-16T00:01:04.735Z,2.83
2023-03-16T00:03:33.447Z,1.97
2023-03-16T00:06:01.958Z,2.30
2023-03-16T00:08:30.721Z,5.07
2023-03-16T00:10:59.289Z,4.33
2023-03-16T00:13:27.812Z,3.40
2023-03-16T00:15:58.959Z,1.70
2023-03-16T00:18:29.168Z,2.30
2023-03-16T00:20:58.900Z,1.80
2023-03-16T00:23:28.397Z,3.87
2023-03-16T00:25:57.469Z,5.53
2023-03-16T00:28:26.416Z,2.73
2023-03-16T00:30:59.107Z,2.47
2023-03-16T00:33:29.437Z,3.83
2023-03-16T00:36:03.349Z,4.73
2023-03-16T00:38:34.756Z,4.60
2023-03-16T00:41:04.324Z,5.50
2023-03-16T00:43:40.739Z,3.13
2023-03-16T00:46:10.161Z,1.50
2023-03-16T00:48:42.584Z,3.83
2023-03-16T00:51:13.081Z,4.90
2023-03-16T00:53:42.224Z,1.67
2023-03-16T00:56:11.417Z,3.63
2023-03-16T00:58:43.290Z,2.40
2023-03-16T01:01:13.753Z,1.23
2023-03-16T01:03:43.729Z,1.43
2023-03-16T01:06:13.865Z,4.37
2023-03-16T01:08:43.033Z,2.07
2023-03-16T01:11:12.523Z,4.47
2023-03-16T01:13:41.733Z,3.40
2023-03-16T01:16:11.039Z,1.87
2023-03-16T01:18:39.520Z,6.13
2023-03-16T01:21:10.628Z,3.43
2023-03-16T01:23:39.354Z,1.40
2023-03-16T01:26:08.430Z,4.37
2023-03-16T01:28:37.081Z,2.97
2023-03-16T01:31:07.327Z,6.20
2023-03-16T01:33:35.846Z,0.97
2023-03-16T01:36:05.478Z,2.13
2023-03-16T01:38:35.711Z,2.70
2023-03-16T01:41:04.717Z,3.60
2023-03-16T01:43:34.604Z,8.50
2023-03-16T01:46:15.447Z,2.40
2023-03-16T01:48:45.882Z,1.47
2023-03-16T01:51:17.090Z,1.17
2023-03-16T01:53:47.976Z,2.03
2023-03-16T01:56:18.553Z,6.00
2023-03-16T01:58:47.636Z,2.27
2023-03-16T02:01:16.270Z,2.10
2023-03-16T02:03:45.326Z,6.87
2023-03-16T02:06:14.924Z,4.30
2023-03-16T02:08:45.503Z,3.97
2023-03-16T02:11:18.137Z,2.03
2023-03-16T02:13:47.126Z,0.80
2023-03-16T02:16:19.416Z,2.47
2023-03-16T02:18:48.532Z,1.07
2023-03-16T02:21:20.724Z,6.70
2023-03-16T02:23:50.981Z,1.67
2023-03-16T02:26:23.634Z,3.90
2023-03-16T02:28:54.954Z,0.97
2023-03-16T02:31:25.062Z,2.03
2023-03-16T02:33:54.732Z,3.33
2023-03-16T02:36:23.318Z,3.10
2023-03-16T02:38:51.904Z,7.10
2023-03-16T02:41:21.634Z,3.97
2023-03-16T02:43:52.273Z,0.97
2023-03-16T02:46:21.646Z,1.20
2023-03-16T02:48:52.968Z,3.83
2023-03-16T02:51:21.773Z,3.57
2023-03-16T02:53:50.352Z,1.67
2023-03-16T02:56:18.900Z,3.10
2023-03-16T02:58:47.493Z,5.37
2023-03-16T03:01:16.465Z,4.33
2023-03-16T03:03:44.964Z,7.83
2023-03-16T03:06:15.486Z,5.20
2023-03-16T03:08:44.104Z,3.30
2023-03-16T03:11:12.575Z,5.40
2023-03-16T03:13:44.609Z,3.40
2023-03-16T03:16:13.291Z,1.70
2023-03-16T03:18:42.248Z,3.97
2023-03-16T03:21:10.727Z,2.83
2023-03-16T03:23:40.996Z,3.57
2023-03-16T03:26:09.635Z,1.90
2023-03-16T03:28:38.108Z,1.80
2023-03-16T03:31:06.908Z,4.50
2023-03-16T03:33:37.601Z,5.13
2023-03-16T03:36:06.602Z,1.70
2023-03-16T03:38:35.208Z,1.97
2023-03-16T03:41:07.427Z,3.33
2023-03-16T03:43:36.280Z,3.23
2023-03-16T03:46:05.347Z,5.80
2023-03-16T03:48:33.911Z,5.90
2023-03-16T03:51:05.766Z,3.17
2023-03-16T03:53:34.799Z,4.13
2023-03-16T03:56:03.290Z,3.30
2023-03-16T03:58:33.439Z,5.60
2023-03-16T04:01:02.186Z,2.93
2023-03-16T04:03:31.191Z,2.87
2023-03-16T04:06:00.073Z,1.90
2023-03-16T04:08:28.557Z,4.37
2023-03-16T04:10:57.067Z,2.10
2023-03-16T04:13:25.767Z,5.60
2023-03-16T04:15:59.390Z,1.93
2023-03-16T04:18:28.129Z,8.07
2023-03-16T04:20:56.664Z,3.00
2023-03-16T04:23:26.102Z,3.70
2023-03-16T04:25:54.931Z,4.03
2023-03-16T04:28:26.399Z,3.80
2023-03-16T04:30:55.204Z,2.00
2023-03-16T04:33:25.348Z,3.07
2023-03-16T04:35:53.866Z,1.80
2023-03-16T04:38:22.527Z,2.27
2023-03-16T04:40:51.201Z,2.97
2023-03-16T04:43:19.821Z,3.07
2023-03-16T04:45:48.415Z,3.73
2023-03-16T04:48:17.021Z,3.00
2023-03-16T04:50:46.950Z,3.03
2023-03-16T04:53:15.619Z,2.73
2023-03-16T04:55:44.253Z,3.77
2023-03-16T04:58:13.695Z,4.87
2023-03-16T05:00:42.659Z,4.40
2023-03-16T05:03:11.649Z,3.00
2023-03-16T05:05:40.483Z,2.57
2023-03-16T05:08:11.065Z,2.33
2023-03-16T05:10:39.729Z,10.60
2023-03-16T05:13:09.524Z,1.80
2023-03-16T05:15:38.134Z,2.47
2023-03-16T05:18:06.946Z,7.07
2023-03-16T05:20:35.971Z,2.60
2023-03-16T05:23:04.565Z,6.70
2023-03-16T05:25:34.535Z,5.20
2023-03-16T05:28:03.207Z,2.80
2023-03-16T05:30:31.954Z,3.43
2023-03-16T05:33:00.558Z,2.13
2023-03-16T05:35:29.204Z,5.37
2023-03-16T05:37:57.802Z,1.67
2023-03-16T05:40:26.576Z,2.03
2023-03-16T05:42:58.183Z,9.00
2023-03-16T05:45:27.161Z,3.57
2023-03-16T05:47:55.760Z,4.70
2023-03-16T05:50:24.702Z,3.33
2023-03-16T05:52:53.181Z,2.53
2023-03-16T05:55:21.821Z,2.77
2023-03-16T05:57:51.229Z,9.50
2023-03-16T06:00:22.838Z,9.83
2023-03-16T06:02:52.580Z,5.70
2023-03-16T06:05:21.853Z,1.60
2023-03-16T06:07:50.698Z,5.07
2023-03-16T06:10:19.419Z,1.97
2023-03-16T06:12:47.904Z,9.43
2023-03-16T06:15:16.391Z,7.00
2023-03-16T06:17:46.517Z,15.20
2023-03-16T06:20:15.256Z,11.83
2023-03-16T06:22:44.298Z,4.77
2023-03-16T06:25:14.104Z,4.23
2023-03-16T06:27:45.239Z,4.10
2023-03-16T06:30:14.736Z,7.07
2023-03-16T06:32:44.475Z,7.37
2023-03-16T06:35:14.719Z,18.43
2023-03-16T06:37:43.360Z,8.20
2023-03-16T06:40:12.590Z,3.37
2023-03-16T06:42:41.068Z,6.70
2023-03-16T06:45:10.208Z,6.10
2023-03-16T06:47:38.822Z,8.63
2023-03-16T06:50:08.967Z,5.60
2023-03-16T06:52:39.012Z,6.97
2023-03-16T06:55:08.150Z,4.30
2023-03-16T06:57:36.650Z,10.33
2023-03-16T07:00:07.414Z,7.60
2023-03-16T07:02:36.197Z,3.23
2023-03-16T07:05:04.775Z,4.70
2023-03-16T07:07:33.712Z,3.00
2023-03-16T07:10:03.902Z,11.13
2023-03-16T07:12:32.596Z,8.20
2023-03-16T07:15:01.237Z,2.83
2023-03-16T07:17:29.995Z,6.93
2023-03-16T07:19:58.656Z,5.23
2023-03-16T07:22:27.194Z,1.70
2023-03-16T07:24:57.626Z,8.37
2023-03-16T07:27:27.592Z,2.63
2023-03-16T07:29:56.074Z,8.83
2023-03-16T07:32:24.998Z,4.07
2023-03-16T07:34:53.659Z,6.17
2023-03-16T07:37:25.868Z,2.30
2023-03-16T07:39:54.648Z,3.83
2023-03-16T07:42:23.824Z,4.93
2023-03-16T07:44:53.680Z,6.30
2023-03-16T07:47:24.561Z,5.70
2023-03-16T07:49:54.780Z,5.47
2023-03-16T07:52:24.204Z,7.10
2023-03-16T07:54:52.697Z,2.23
2023-03-16T07:57:21.688Z,5.13
2023-03-16T07:59:50.543Z,3.97
2023-03-16T08:02:21.677Z,4.17
2023-03-16T08:04:50.236Z,7.33
2023-03-16T08:07:19.420Z,4.40
2023-03-16T08:09:47.888Z,3.47
2023-03-16T08:12:16.492Z,5.73
2023-03-16T08:14:46.475Z,3.47
2023-03-16T08:17:14.964Z,4.57
2023-03-16T08:19:44.836Z,6.87
2023-03-16T08:22:13.721Z,7.33
2023-03-16T08:24:42.301Z,3.80
2023-03-16T08:27:11.112Z,5.83
2023-03-16T08:29:40.916Z,3.23
2023-03-16T08:32:09.492Z,2.63
2023-03-16T08:34:40.013Z,5.93
2023-03-16T08:37:10.269Z,5.80
2023-03-16T08:39:42.271Z,5.17
2023-03-16T08:42:11.015Z,3.60
2023-03-16T08:44:40.151Z,3.20
2023-03-16T08:47:08.815Z,5.90
2023-03-16T08:49:37.447Z,3.27
2023-03-16T08:52:06.497Z,2.23
2023-03-16T08:54:36.371Z,3.77
2023-03-16T08:57:04.953Z,9.33
2023-03-16T08:59:33.603Z,1.30
2023-03-16T09:02:02.210Z,11.50
2023-03-16T09:04:30.887Z,3.53
2023-03-16T09:07:09.036Z,3.13
2023-03-16T09:09:39.816Z,4.07
2023-03-16T09:12:08.785Z,2.27
2023-03-16T09:14:38.662Z,3.77
2023-03-16T09:17:07.752Z,3.70
2023-03-16T09:19:53.927Z,1.53
2023-03-16T09:22:24.588Z,5.30
2023-03-16T09:24:54.914Z,2.33
2023-03-16T09:27:23.456Z,4.83
2023-03-16T09:29:55.935Z,4.93
2023-03-16T09:32:24.479Z,5.13
2023-03-16T09:34:53.051Z,3.70
2023-03-16T09:37:21.812Z,3.17
2023-03-16T09:39:50.634Z,3.63
2023-03-16T09:42:23.568Z,1.43
2023-03-16T09:44:58.394Z,0.87
2023-03-16T09:47:28.575Z,4.37
2023-03-16T09:49:59.092Z,4.27
2023-03-16T09:52:31.597Z,3.97
2023-03-16T09:55:01.952Z,2.40
2023-03-16T09:57:34.949Z,1.97
2023-03-16T10:00:10.111Z,5.30
2023-03-16T10:02:43.983Z,2.83
2023-03-16T10:05:13.548Z,4.07
2023-03-16T10:07:46.144Z,2.37
2023-03-16T10:10:23.675Z,5.70
2023-03-16T10:12:55.763Z,4.00
2023-03-16T10:15:27.173Z,4.83
2023-03-16T10:17:58.655Z,4.07
2023-03-16T10:20:33.116Z,6.77
2023-03-16T10:23:03.481Z,5.80
2023-03-16T10:25:34.947Z,4.73
2023-03-16T10:28:04.923Z,7.90
2023-03-16T10:30:35.140Z,1.57
2023-03-16T10:33:05.673Z,4.27
2023-03-16T10:35:40.549Z,4.83
2023-03-16T10:38:09.978Z,0.83
2023-03-16T10:40:39.664Z,2.13
2023-03-16T10:43:15.133Z,2.87
2023-03-16T10:45:44.434Z,5.47
2023-03-16T10:48:15.763Z,0.70
2023-03-16T10:50:44.681Z,5.50
2023-03-16T10:53:18.701Z,1.10
2023-03-16T10:55:50.376Z,2.20
2023-03-16T10:58:29.672Z,1.70
2023-03-16T11:00:59.196Z,2.53
2023-03-16T11:03:29.003Z,1.00
2023-03-16T11:06:02.331Z,4.63
2023-03-16T11:08:34.652Z,1.47
2023-03-16T11:11:10.149Z,2.27
2023-03-16T11:13:40.954Z,1.90
2023-03-16T11:16:17.567Z,4.63
2023-03-16T11:18:48.489Z,3.70
2023-03-16T11:21:18.797Z,4.97
2023-03-16T11:23:49.862Z,0.70
2023-03-16T11:26:23.036Z,1.50
2023-03-16T11:28:56.518Z,1.00
2023-03-16T11:31:28.951Z,3.77
2023-03-16T11:33:57.770Z,1.80
2023-03-16T11:36:36.318Z,1.20
2023-03-16T11:39:09.442Z,5.73
2023-03-16T11:41:42.423Z,2.57
2023-03-16T11:44:16.961Z,0.90
2023-03-16T11:46:49.507Z,4.33
2023-03-16T11:49:28.533Z,1.13
2023-03-16T11:52:01.679Z,1.13
2023-03-16T11:54:37.357Z,1.87
2023-03-16T11:57:09.833Z,4.00
2023-03-16T11:59:55.435Z,1.50
2023-03-16T12:02:35.084Z,3.10
2023-03-16T12:05:22.560Z,2.67
2023-03-16T12:07:57.307Z,1.47
2023-03-16T12:10:27.449Z,1.50
2023-03-16T12:13:03.203Z,3.37
2023-03-16T12:15:38.573Z,0.70
2023-03-16T12:18:13.499Z,5.33
2023-03-16T12:20:45.906Z,3.53
2023-03-16T12:23:15.972Z,1.83
2023-03-16T12:25:47.690Z,3.30
2023-03-16T12:28:18.914Z,4.53
2023-03-16T12:30:52.743Z,0.80
2023-03-16T12:33:25.415Z,1.30
2023-03-16T12:35:57.413Z,1.53
2023-03-16T12:38:36.773Z,2.00
2023-03-16T12:41:11.127Z,2.07
2023-03-16T12:43:43.843Z,4.17
2023-03-16T12:46:15.840Z,0.70
2023-03-16T12:48:47.117Z,1.50
2023-03-16T12:51:15.858Z,2.40
2023-03-16T12:53:46.874Z,1.93
2023-03-16T12:56:17.599Z,2.47
2023-03-16T12:58:47.302Z,3.40
2023-03-16T13:01:18.761Z,0.77
2023-03-16T13:03:49.879Z,2.17
2023-03-16T13:06:23.787Z,0.80
2023-03-16T13:08:54.971Z,0.60
2023-03-16T13:11:24.280Z,2.27
2023-03-16T13:13:54.287Z,6.80
2023-03-16T13:16:28.548Z,2.70
2023-03-16T13:18:57.605Z,1.00
2023-03-16T13:21:36.562Z,1.60
2023-03-16T13:24:15.926Z,1.13
2023-03-16T13:26:47.491Z,1.67
2023-03-16T13:29:23.988Z,2.90
2023-03-16T13:31:54.406Z,1.47
2023-03-16T13:34:24.829Z,4.13
2023-03-16T13:36:55.772Z,2.40
2023-03-16T13:39:27.429Z,0.70
2023-03-16T13:42:00.750Z,1.67
2023-03-16T13:44:30.718Z,0.70
2023-03-16T13:47:04.484Z,4.37
2023-03-16T13:49:35.525Z,1.57
2023-03-16T13:52:06.019Z,2.67
2023-03-16T13:54:35.559Z,4.70
2023-03-16T13:57:07.394Z,3.50
2023-03-16T13:59:36.296Z,1.87
2023-03-16T14:02:15.614Z,3.53
2023-03-16T14:04:44.329Z,3.00
2023-03-16T14:07:17.579Z,1.33
2023-03-16T14:09:46.734Z,1.43
2023-03-16T14:12:16.140Z,1.80
2023-03-16T14:14:49.980Z,3.63
2023-03-16T14:17:21.571Z,4.47
2023-03-16T14:19:51.136Z,2.27
2023-03-16T14:22:21.656Z,1.50
2023-03-16T14:24:55.253Z,2.97
2023-03-16T14:27:25.047Z,1.23
2023-03-16T14:29:55.350Z,2.87
2023-03-16T14:32:28.597Z,0.93
2023-03-16T14:35:05.459Z,3.70
2023-03-16T14:37:37.714Z,4.07
2023-03-16T14:40:08.216Z,2.10
2023-03-16T14:42:39.120Z,2.30
2023-03-16T14:45:13.514Z,1.53
2023-03-16T14:47:46.156Z,3.83
2023-03-16T14:50:16.823Z,3.73
2023-03-16T14:52:45.926Z,2.50
2023-03-16T14:55:15.454Z,5.97
2023-03-16T14:57:45.177Z,3.23
2023-03-16T15:00:15.512Z,1.90
2023-03-16T15:02:46.742Z,3.17
2023-03-16T15:05:22.480Z,4.63
2023-03-16T15:07:54.695Z,3.83
2023-03-16T15:10:26.873Z,1.20
2023-03-16T15:13:04.512Z,1.60
2023-03-16T15:15:33.286Z,1.67
2023-03-16T15:18:06.360Z,2.33
2023-03-16T15:20:36.398Z,4.27
2023-03-16T15:23:05.152Z,2.40
2023-03-16T15:25:37.207Z,3.43
2023-03-16T15:28:12.726Z,1.90
2023-03-16T15:30:41.461Z,3.67
2023-03-16T15:33:12.380Z,2.37
2023-03-16T15:35:41.997Z,1.40
2023-03-16T15:38:14.156Z,2.37
2023-03-16T15:40:43.801Z,2.37
2023-03-16T15:43:13.500Z,1.90
2023-03-16T15:45:43.639Z,3.43
2023-03-16T15:48:13.767Z,1.77
2023-03-16T15:50:44.069Z,10.47
2023-03-16T15:53:29.490Z,11.27
2023-03-16T15:56:02.910Z,10.07
2023-03-16T15:58:32.625Z,5.20
2023-03-16T16:01:01.872Z,5.07
2023-03-16T16:03:32.038Z,1.00
2023-03-16T16:06:01.105Z,4.10
2023-03-16T16:08:29.599Z,2.87
2023-03-16T16:10:58.259Z,4.30
2023-03-16T16:13:43.076Z,3.57
2023-03-16T16:16:13.946Z,5.50
2023-03-16T16:18:44.035Z,5.27
2023-03-16T16:21:16.973Z,3.83
2023-03-16T16:23:45.689Z,3.63
2023-03-16T16:26:22.147Z,1.70
2023-03-16T16:28:51.462Z,2.20
2023-03-16T16:31:21.807Z,4.77
2023-03-16T16:33:52.375Z,7.73
2023-03-16T16:36:22.100Z,2.97
2023-03-16T16:38:51.733Z,2.67
2023-03-16T16:41:24.693Z,2.17
2023-03-16T16:43:54.065Z,5.67
2023-03-16T16:46:23.943Z,2.60
2023-03-16T16:48:54.863Z,2.13
2023-03-16T16:51:24.893Z,2.33
2023-03-16T16:53:53.890Z,4.77
2023-03-16T16:56:24.712Z,2.67
2023-03-16T16:58:53.273Z,2.47
2023-03-16T17:01:23.973Z,4.63
2023-03-16T17:03:53.930Z,3.97
2023-03-16T17:06:22.634Z,2.13
2023-03-16T17:08:52.340Z,1.53
2023-03-16T17:11:22.986Z,1.70
2023-03-16T17:13:52.720Z,3.90
2023-03-16T17:16:22.942Z,2.33
2023-03-16T17:18:51.561Z,1.13
2023-03-16T17:21:23.695Z,0.83
2023-03-16T17:23:52.985Z,2.20
2023-03-16T17:26:23.416Z,1.80
2023-03-16T17:28:53.039Z,4.10
2023-03-16T17:31:24.543Z,4.47
2023-03-16T17:33:53.465Z,3.90
2023-03-16T17:36:23.584Z,2.37
2023-03-16T17:38:53.762Z,5.43
2023-03-16T17:41:24.173Z,2.70
2023-03-16T17:43:54.486Z,6.30
2023-03-16T17:46:24.023Z,4.90
2023-03-16T17:48:54.102Z,3.93
2023-03-16T17:51:25.666Z,4.10
2023-03-16T17:53:55.782Z,3.10
2023-03-16T17:56:25.390Z,7.63
2023-03-16T17:58:57.249Z,3.83
2023-03-16T18:01:29.193Z,3.63
2023-03-16T18:03:58.100Z,3.20
2023-03-16T18:06:29.765Z,8.80
2023-03-16T18:08:58.790Z,1.83
2023-03-16T18:11:34.197Z,3.57
2023-03-16T18:14:04.096Z,3.90
2023-03-16T18:16:32.711Z,6.77
2023-03-16T18:19:02.465Z,4.00
2023-03-16T18:21:33.642Z,5.07
2023-03-16T18:24:02.646Z,1.93
2023-03-16T18:26:31.118Z,1.87
2023-03-16T18:28:59.704Z,1.93
2023-03-16T18:31:29.693Z,1.00
2023-03-16T18:33:59.586Z,1.70
2023-03-16T18:36:29.677Z,4.27
2023-03-16T18:39:00.512Z,1.10
2023-03-16T18:41:30.478Z,2.73
2023-03-16T18:44:00.116Z,2.03
2023-03-16T18:46:30.010Z,1.23
2023-03-16T18:48:59.313Z,1.00
2023-03-16T18:51:28.128Z,1.23
2023-03-16T18:53:56.629Z,1.33
2023-03-16T18:56:27.266Z,1.30
2023-03-16T18:58:56.394Z,5.60
2023-03-16T19:01:26.721Z,4.97
2023-03-16T19:03:55.865Z,2.57
2023-03-16T19:06:29.667Z,6.73
2023-03-16T19:09:00.662Z,4.57
2023-03-16T19:11:30.776Z,5.70
2023-03-16T19:14:00.333Z,47.03
2023-03-16T19:16:28.877Z,128.20
2023-03-16T19:18:57.587Z,50.40
2023-03-16T19:21:26.228Z,7.67
2023-03-16T19:23:57.390Z,8.70
2023-03-16T19:26:26.256Z,4.60
2023-03-16T19:28:56.221Z,2.57
2023-03-16T19:31:27.408Z,1.97
2023-03-16T19:33:56.986Z,8.63
2023-03-16T19:36:26.583Z,22.57
2023-03-16T19:38:55.274Z,5.10
2023-03-16T19:41:26.971Z,16.07
2023-03-16T19:43:57.872Z,4.00
2023-03-16T19:46:27.614Z,6.13
2023-03-16T19:48:56.671Z,4.93
2023-03-16T19:51:29.171Z,2.33
2023-03-16T19:53:59.549Z,2.77
2023-03-16T19:56:29.379Z,1.87
2023-03-16T19:59:00.052Z,3.53
2023-03-16T20:01:32.431Z,2.23
2023-03-16T20:04:04.456Z,4.20
2023-03-16T20:06:34.160Z,6.83
2023-03-16T20:09:02.647Z,9.30
2023-03-16T20:11:32.511Z,15.30
2023-03-16T20:14:03.601Z,3.60
2023-03-16T20:16:33.057Z,3.63
2023-03-16T20:19:02.984Z,14.43
2023-03-16T20:21:32.791Z,12.10
2023-03-16T20:24:01.631Z,10.97
2023-03-16T20:26:32.879Z,43.33
2023-03-16T20:29:03.283Z,43.43
2023-03-16T20:31:34.697Z,47.50
2023-03-16T20:34:03.539Z,22.33
2023-03-16T20:36:32.327Z,14.90
2023-03-16T20:39:00.870Z,5.43
2023-03-16T20:41:31.041Z,5.77
2023-03-16T20:44:01.432Z,6.47
2023-03-16T20:46:32.480Z,2.30
2023-03-16T20:49:01.310Z,7.07
2023-03-16T20:51:30.624Z,7.00
2023-03-16T20:53:59.427Z,4.97
2023-03-16T20:56:28.033Z,7.83
2023-03-16T20:58:57.274Z,3.90
2023-03-16T21:01:26.593Z,6.53
2023-03-16T21:03:57.314Z,3.33
2023-03-16T21:06:27.350Z,5.40
2023-03-16T21:08:58.531Z,6.23
2023-03-16T21:11:28.017Z,4.83
2023-03-16T21:13:56.756Z,2.83
2023-03-16T21:16:25.398Z,2.00
2023-03-16T21:18:54.037Z,2.50
2023-03-16T21:21:23.987Z,1.30
2023-03-16T21:23:52.590Z,0.73
2023-03-16T21:26:23.031Z,0.93
2023-03-16T21:28:55.691Z,0.67
2023-03-16T21:31:24.770Z,0.50
2023-03-16T21:33:53.921Z,0.40
2023-03-16T21:36:26.330Z,0.30
2023-03-16T21:38:55.828Z,0.80
2023-03-16T21:41:24.390Z,0.27
2023-03-16T21:43:54.595Z,1.07
2023-03-16T21:46:23.798Z,0.33
2023-03-16T21:48:53.021Z,0.40
2023-03-16T21:51:22.691Z,0.80
2023-03-16T21:53:53.584Z,2.27
2023-03-16T21:56:22.910Z,0.33
2023-03-16T21:58:52.277Z,0.73
2023-03-16T22:01:23.216Z,0.60
2023-03-16T22:03:54.162Z,0.63
2023-03-16T22:06:22.913Z,1.00
2023-03-16T22:08:52.916Z,1.23
2023-03-16T22:11:22.559Z,0.60
2023-03-16T22:13:51.455Z,1.47
2023-03-16T22:16:20.940Z,0.37
2023-03-16T22:18:50.570Z,0.50
2023-03-16T22:21:27.159Z,1.73
2023-03-16T22:23:58.160Z,1.07
2023-03-16T22:26:27.487Z,1.10
2023-03-16T22:28:56.628Z,1.00
2023-03-16T22:31:29.154Z,2.07
2023-03-16T22:33:57.830Z,0.73
2023-03-16T22:36:26.331Z,0.93
2023-03-16T22:38:57.420Z,0.70
2023-03-16T22:41:27.665Z,0.37
2023-03-16T22:43:56.185Z,1.47
2023-03-16T22:46:25.660Z,3.10
2023-03-16T22:48:55.109Z,1.13
2023-03-16T22:51:26.008Z,0.50
2023-03-16T22:53:56.210Z,1.30
2023-03-16T22:56:27.744Z,0.60
2023-03-16T22:58:57.318Z,0.53
2023-03-16T23:01:28.076Z,2.07
2023-03-16T23:03:57.053Z,0.67
2023-03-16T23:06:26.628Z,1.37
2023-03-16T23:08:55.860Z,0.50
2023-03-16T23:11:26.836Z,0.40
2023-03-16T23:13:58.096Z,1.67
2023-03-16T23:16:28.520Z,0.73
2023-03-16T23:18:57.163Z,1.77
2023-03-16T23:21:26.567Z,0.27
2023-03-16T23:24:03.463Z,0.87
2023-03-16T23:26:32.891Z,0.93
2023-03-16T23:29:03.030Z,1.93
2023-03-16T23:31:31.552Z,0.20
2023-03-16T23:34:00.155Z,0.60
2023-03-16T23:36:29.193Z,0.47
2023-03-16T23:38:57.842Z,2.63
2023-03-16T23:41:26.919Z,1.07
2023-03-16T23:43:56.132Z,0.10
2023-03-16T23:46:27.103Z,0.40
2023-03-16T23:48:57.336Z,0.13
2023-03-16T23:51:27.701Z,0.93
2023-03-16T23:53:56.528Z,0.20
2023-03-16T23:56:25.313Z,0.43
2023-03-16T23:58:53.971Z,0.17
